Time;durP1;ratioP1;P1;durP2;ratioP2;P2;SDS_P1;SDS_P2;PMS_P1;PMS_P2;Temp;Humidity;BMP_temperature;BMP_pressure;BME280_temperature;BME280_humidity;BME280_pressure;Samples;Min_cycle;Max_cycle;Signal;HPM_P1;HPM_P2
2022/11/01 00:01:39;;;;;;;14.05;8.50;;;;;;;12.76;58.01;95646.78;5028223;28;20549;-64
2022/11/01 00:04:04;;;;;;;11.07;7.75;;;;;;;12.78;57.86;95643.03;5030331;28;20187;-64
2022/11/01 00:06:30;;;;;;;13.35;8.48;;;;;;;12.64;57.96;95640.06;5029486;28;20277;-64
2022/11/01 00:08:55;;;;;;;11.00;8.15;;;;;;;12.77;57.83;95640.50;5026539;28;20182;-65
2022/11/01 00:11:21;;;;;;;13.30;8.60;;;;;;;12.82;57.82;95642.72;5030055;28;20224;-65
2022/11/01 00:13:48;;;;;;;12.80;8.25;;;;;;;12.83;57.81;95642.59;5024534;28;20210;-65
2022/11/01 00:16:15;;;;;;;14.77;8.80;;;;;;;12.84;57.57;95643.41;5028901;28;20213;-64
2022/11/01 00:18:41;;;;;;;16.05;8.90;;;;;;;12.79;57.79;95652.59;5028695;28;20197;-65
2022/11/01 00:21:06;;;;;;;13.20;8.02;;;;;;;12.84;57.44;95646.03;5026497;28;20248;-64
2022/11/01 00:23:31;;;;;;;12.43;8.50;;;;;;;12.79;57.66;95639.38;5027127;28;20182;-64
2022/11/01 00:26:00;;;;;;;13.50;9.57;;;;;;;12.85;57.15;95647.69;5033907;28;20186;-64
2022/11/01 00:28:27;;;;;;;14.25;9.35;;;;;;;12.79;57.69;95649.94;5046874;28;20185;-64
2022/11/01 00:30:55;;;;;;;13.55;8.75;;;;;;;12.59;58.23;95645.78;5033225;28;20186;-65
2022/11/01 00:33:21;;;;;;;14.55;9.05;;;;;;;12.58;58.23;95641.47;5033667;28;20182;-65
2022/11/01 00:35:47;;;;;;;15.85;9.90;;;;;;;12.63;58.30;95639.22;5033551;28;20866;-64
2022/11/01 00:38:13;;;;;;;13.50;8.63;;;;;;;12.66;58.24;95643.38;5027412;28;20271;-65
2022/11/01 00:40:39;;;;;;;14.32;9.05;;;;;;;12.70;58.37;95648.22;5034873;28;20174;-65
2022/11/01 00:43:04;;;;;;;14.95;9.95;;;;;;;12.65;58.15;95647.84;5033755;28;20217;-64
2022/11/01 00:45:30;;;;;;;14.52;9.07;;;;;;;12.60;58.54;95638.72;5031555;28;20265;-65
2022/11/01 00:47:55;;;;;;;13.65;8.93;;;;;;;12.66;58.05;95641.56;5033486;28;20198;-65
2022/11/01 00:50:21;;;;;;;15.63;8.50;;;;;;;12.53;58.17;95641.91;5031338;28;20256;-64
2022/11/01 00:52:46;;;;;;;13.02;8.85;;;;;;;12.59;58.22;95645.78;5028196;28;20308;-65
2022/11/01 00:55:12;;;;;;;14.85;8.93;;;;;;;12.36;58.82;95643.56;5033529;28;20197;-66
2022/11/01 00:57:37;;;;;;;13.43;8.98;;;;;;;12.29;59.17;95642.47;5029778;28;20716;-64
2022/11/01 01:00:04;;;;;;;14.48;9.15;;;;;;;12.31;59.11;95643.16;5033691;28;20281;-66
2022/11/01 01:02:30;;;;;;;14.27;8.75;;;;;;;12.00;60.18;95640.00;5030543;28;20210;-66
2022/11/01 01:04:55;;;;;;;13.55;8.70;;;;;;;12.18;60.00;95645.31;5028262;28;20634;-66
2022/11/01 01:07:21;;;;;;;12.93;8.55;;;;;;;12.23;59.78;95644.88;5033085;28;20183;-64
2022/11/01 01:09:46;;;;;;;13.20;8.73;;;;;;;12.27;59.40;95640.97;5031895;28;20202;-65
2022/11/01 01:12:12;;;;;;;13.80;9.40;;;;;;;12.44;58.73;95640.19;5026309;28;20182;-65
2022/11/01 01:14:37;;;;;;;11.73;8.85;;;;;;;12.28;59.33;95645.28;5035061;28;20186;-67
2022/11/01 01:17:03;;;;;;;13.38;9.48;;;;;;;12.18;59.71;95647.94;5032928;28;20197;-65
2022/11/01 01:19:29;;;;;;;13.55;9.18;;;;;;;12.12;59.89;95640.63;5027591;28;20186;-65
2022/11/01 01:21:55;;;;;;;11.30;8.15;;;;;;;12.15;59.77;95640.34;5032538;28;20265;-68
2022/11/01 01:24:21;;;;;;;11.23;8.80;;;;;;;11.84;60.55;95642.38;5033571;28;20316;-64
2022/11/01 01:26:47;;;;;;;14.35;9.32;;;;;;;11.79;60.70;95639.34;5029341;28;20317;-67
2022/11/01 01:29:12;;;;;;;13.32;8.65;;;;;;;11.84;60.77;95637.94;5031497;28;20273;-64
2022/11/01 01:31:38;;;;;;;11.75;8.43;;;;;;;11.83;60.55;95644.19;5028302;28;20630;-67
2022/11/01 01:34:03;;;;;;;15.60;8.70;;;;;;;11.78;60.85;95635.88;5027034;28;20202;-65
2022/11/01 01:36:29;;;;;;;12.70;8.65;;;;;;;11.90;60.47;95647.09;5029486;28;20190;-65
2022/11/01 01:38:58;;;;;;;12.20;8.57;;;;;;;11.70;60.62;95646.28;5028667;28;20297;-65
2022/11/01 01:44:42;;;;;;;14.68;9.15;;;;;;;11.76;60.94;95652.78;5027035;28;20303;-64
2022/11/01 01:47:11;;;;;;;11.45;8.13;;;;;;;11.90;60.39;95653.19;5026046;28;20265;-68
2022/11/01 01:49:36;;;;;;;15.43;8.95;;;;;;;11.96;59.95;95657.06;5027642;28;20181;-66
2022/11/01 01:52:02;;;;;;;14.32;8.57;;;;;;;11.95;59.90;95650.16;5031184;28;20175;-66
2022/11/01 01:54:29;;;;;;;15.40;8.55;;;;;;;11.69;60.41;95647.28;5030295;28;20607;-66
2022/11/01 01:56:54;;;;;;;11.57;8.40;;;;;;;11.65;60.84;95653.78;5027340;28;20178;-64
2022/11/01 01:59:19;;;;;;;14.82;7.63;;;;;;;11.61;60.98;95647.16;5026442;28;20700;-67
2022/11/01 02:01:45;;;;;;;11.60;8.40;;;;;;;11.53;61.19;95654.94;5027774;28;20202;-66
2022/11/01 02:04:17;;;;;;;12.68;8.07;;;;;;;11.72;60.59;95648.78;5031434;28;20251;-64
2022/11/01 02:06:42;;;;;;;12.40;8.27;;;;;;;11.83;60.36;95648.63;5028326;28;20191;-67
2022/11/01 02:09:08;;;;;;;15.07;8.50;;;;;;;11.83;60.43;95649.44;5025040;28;20197;-65
2022/11/01 02:11:35;;;;;;;10.32;7.82;;;;;;;11.84;60.33;95650.25;5030132;28;20186;-66
2022/11/01 02:14:01;;;;;;;12.20;8.10;;;;;;;11.55;61.00;95648.56;5029925;28;20288;-65
2022/11/01 02:16:48;;;;;;;9.70;7.93;;;;;;;11.55;61.18;95655.66;5030374;28;20655;-65
2022/11/01 02:19:17;;;;;;;12.13;7.80;;;;;;;11.51;61.13;95659.53;5022261;28;20181;-65
2022/11/01 02:21:52;;;;;;;12.80;8.43;;;;;;;11.34;61.66;95654.00;5029175;28;20207;-64
2022/11/01 02:24:52;;;;;;;15.68;9.20;;;;;;;11.32;61.70;95658.56;5025987;28;20265;-64
2022/11/01 02:27:25;;;;;;;15.85;9.85;;;;;;;11.46;61.48;95659.94;4936554;28;20327;-64
2022/11/01 02:29:57;;;;;;;13.32;9.10;;;;;;;11.56;61.25;95665.19;4943000;28;20184;-64
2022/11/01 02:32:34;;;;;;;11.52;8.23;;;;;;;11.46;61.36;95668.66;4946320;28;20974;-65
2022/11/01 02:35:09;;;;;;;13.63;9.30;;;;;;;11.45;61.39;95666.19;4929586;28;20263;-64
2022/11/01 02:38:09;;;;;;;15.70;9.30;;;;;;;11.33;61.93;95668.13;4936223;28;20299;-64
2022/11/01 02:41:02;;;;;;;13.63;8.65;;;;;;;11.38;61.73;95668.53;4914913;29;20565;-64
2022/11/01 02:43:43;;;;;;;11.38;8.10;;;;;;;11.25;62.06;95674.13;4894512;29;20380;-64
2022/11/01 02:48:55;;;;;;;13.55;8.82;;;;;;;11.21;62.60;95677.16;4916941;29;20194;-64
2022/11/01 02:51:23;;;;;;;13.77;9.05;;;;;;;11.24;61.97;95672.44;4899545;29;20203;-64
2022/11/01 02:53:49;;;;;;;13.32;9.02;;;;;;;11.30;62.19;95671.03;4915769;29;20197;-64
2022/11/01 02:56:16;;;;;;;12.10;9.07;;;;;;;11.29;61.94;95668.56;4916311;29;20189;-64
2022/11/01 02:58:43;;;;;;;14.68;8.48;;;;;;;11.31;61.68;95680.63;4898308;29;20885;-63
2022/11/01 03:01:15;;;;;;;13.95;8.82;;;;;;;10.88;62.61;95679.25;4908347;29;20982;-64
2022/11/01 03:03:44;;;;;;;14.80;9.23;;;;;;;10.98;62.66;95682.69;4921381;29;20205;-64
2022/11/01 03:06:33;;;;;;;11.23;8.95;;;;;;;10.93;62.94;95689.31;4951239;29;20200;-64
2022/11/01 03:09:03;;;;;;;15.30;8.07;;;;;;;10.93;63.21;95684.91;4950284;29;20217;-64
2022/11/01 03:11:50;;;;;;;9.30;8.25;;;;;;;11.16;62.25;95695.16;4935965;29;20296;-64
2022/11/01 03:14:50;;;;;;;12.65;9.13;;;;;;;11.13;62.23;95695.44;4937322;29;20660;-64
2022/11/01 03:17:45;;;;;;;16.13;9.02;;;;;;;11.03;62.34;95693.63;4901784;29;20201;-64
2022/11/01 03:20:21;;;;;;;12.25;8.82;;;;;;;10.93;62.73;95689.31;4951124;29;20224;-64
2022/11/01 03:22:53;;;;;;;13.85;8.70;;;;;;;10.99;62.49;95700.16;4951122;29;20204;-63
2022/11/01 03:25:37;;;;;;;13.27;9.82;;;;;;;10.87;62.82;95695.97;4935723;29;20200;-63
2022/11/01 03:28:20;;;;;;;12.95;10.45;;;;;;;10.87;62.76;95695.16;4937467;29;20201;-66
2022/11/01 03:30:56;;;;;;;14.75;9.95;;;;;;;10.86;62.72;95694.31;4934391;29;20196;-63
2022/11/01 03:33:24;;;;;;;12.40;9.80;;;;;;;10.77;63.25;95689.84;4935067;29;20271;-64
2022/11/01 03:35:53;;;;;;;11.60;8.70;;;;;;;10.73;63.42;95693.75;4949551;29;20336;-64
2022/11/01 03:38:24;;;;;;;17.20;10.20;;;;;;;10.91;62.82;95697.38;4934368;29;20207;-64
2022/11/01 03:40:54;;;;;;;16.30;9.90;;;;;;;10.78;63.31;95686.28;4931999;29;20297;-64
2022/11/01 03:43:24;;;;;;;20.00;9.93;;;;;;;10.80;63.19;95687.81;4934385;29;20578;-64
2022/11/01 03:45:50;;;;;;;13.05;9.63;;;;;;;10.72;63.06;95686.81;4934540;29;20221;-64
2022/11/01 03:48:15;;;;;;;18.48;10.45;;;;;;;10.86;62.75;95686.44;4934062;29;20200;-64
2022/11/01 03:50:49;;;;;;;14.68;9.73;;;;;;;10.91;62.36;95680.75;4933877;29;20184;-64
2022/11/01 03:53:15;;;;;;;11.93;9.27;;;;;;;10.92;62.43;95692.94;4991870;28;20572;-64
2022/11/01 03:55:41;;;;;;;12.18;9.18;;;;;;;10.75;62.58;95686.56;5022217;28;20186;-63
2022/11/01 03:58:07;;;;;;;12.25;8.95;;;;;;;10.77;62.47;95690.72;5025199;28;20191;-63
2022/11/01 04:00:39;;;;;;;13.40;8.65;;;;;;;10.68;62.44;95690.69;5028089;28;20186;-64
2022/11/01 04:03:05;;;;;;;9.93;8.60;;;;;;;10.45;63.42;95690.06;5027311;28;20340;-64
2022/11/01 04:05:32;;;;;;;11.07;8.45;;;;;;;10.37;64.01;95696.00;5026967;28;20835;-63
2022/11/01 04:07:58;;;;;;;12.45;9.07;;;;;;;10.57;63.09;95691.63;5024160;28;20183;-64
2022/11/01 04:10:25;;;;;;;10.98;8.75;;;;;;;10.47;63.21;95698.66;5022776;28;20270;-64
2022/11/01 04:12:51;;;;;;;9.73;7.85;;;;;;;10.36;63.64;95697.81;5022816;28;20171;-63
2022/11/01 04:20:57;;;;;;;19.65;9.77;;;;;;;10.65;63.20;95698.84;5023954;28;20566;-63
2022/11/01 04:23:23;;;;;;;14.63;9.98;;;;;;;10.46;63.52;95694.38;5022395;28;20240;-64
2022/11/01 04:25:49;;;;;;;15.20;9.63;;;;;;;10.44;63.85;95696.31;5028551;28;20276;-63
2022/11/01 04:28:15;;;;;;;19.67;10.23;;;;;;;10.51;63.51;95695.66;5026418;28;20198;-64
2022/11/01 04:30:41;;;;;;;14.00;11.05;;;;;;;10.46;63.78;95692.59;5018948;28;20190;-63
2022/11/01 04:33:07;;;;;;;13.52;11.05;;;;;;;10.40;64.22;95698.38;5026640;28;20178;-64
2022/11/01 04:35:35;;;;;;;14.20;10.23;;;;;;;10.42;63.98;95692.97;5027854;28;20284;-64
2022/11/01 04:38:00;;;;;;;14.95;9.60;;;;;;;10.43;63.91;95692.84;5026076;28;20688;-63
2022/11/01 04:40:26;;;;;;;15.13;9.77;;;;;;;10.44;64.10;95694.50;5029426;28;20186;-64
2022/11/01 04:42:54;;;;;;;17.40;10.15;;;;;;;10.43;63.74;95692.03;5009896;28;20205;-64
2022/11/01 04:45:20;;;;;;;13.73;10.30;;;;;;;10.38;64.00;95689.78;5027337;28;20240;-63
2022/11/01 04:47:51;;;;;;;16.88;10.85;;;;;;;10.44;63.74;95699.75;5022385;28;20657;-63
2022/11/01 04:50:19;;;;;;;19.73;11.32;;;;;;;10.19;64.65;95701.03;5020688;28;20186;-64
2022/11/01 04:52:45;;;;;;;15.77;10.35;;;;;;;10.16;64.83;95701.31;5027577;28;20190;-64
2022/11/01 04:55:10;;;;;;;18.80;10.98;;;;;;;10.24;64.48;95696.22;5019902;28;20947;-63
2022/11/01 04:57:42;;;;;;;15.80;11.00;;;;;;;10.37;64.20;95701.25;5024820;28;20649;-63
2022/11/01 05:00:10;;;;;;;17.88;10.90;;;;;;;10.33;64.12;95695.44;5023724;28;20209;-63
2022/11/01 05:02:37;;;;;;;15.07;10.23;;;;;;;10.32;64.06;95711.38;5021860;28;20203;-64
2022/11/01 05:05:05;;;;;;;14.75;10.23;;;;;;;10.28;63.99;95708.16;5028878;28;20178;-64
2022/11/01 05:07:30;;;;;;;17.55;11.07;;;;;;;10.20;63.94;95710.59;5025683;28;20214;-64
2022/11/01 05:09:56;;;;;;;13.65;10.07;;;;;;;10.21;63.87;95714.03;5028609;28;20274;-64
2022/11/01 05:12:21;;;;;;;19.15;11.60;;;;;;;10.05;64.47;95710.13;5029827;28;20277;-64
2022/11/01 05:14:47;;;;;;;19.13;10.57;;;;;;;10.13;64.17;95712.06;5026403;28;20194;-64
2022/11/01 05:17:12;;;;;;;17.08;10.55;;;;;;;10.22;63.67;95711.28;5032206;28;20284;-64
2022/11/01 05:19:38;;;;;;;15.80;10.85;;;;;;;9.82;65.04;95724.38;5029331;28;20181;-64
2022/11/01 05:22:03;;;;;;;13.43;10.73;;;;;;;9.94;65.05;95720.69;5031632;28;20237;-64
2022/11/01 05:24:28;;;;;;;14.43;10.27;;;;;;;10.20;63.90;95733.41;5023246;28;20211;-64
2022/11/01 05:26:54;;;;;;;13.77;10.40;;;;;;;10.05;64.43;95731.13;5027227;28;20221;-64
2022/11/01 05:29:19;;;;;;;14.30;10.93;;;;;;;10.19;64.22;95735.22;5031909;28;20209;-64
2022/11/01 05:31:45;;;;;;;16.77;10.73;;;;;;;10.31;63.79;95731.53;5032082;28;20190;-64
2022/11/01 05:34:11;;;;;;;15.05;11.00;;;;;;;10.28;63.98;95731.81;5023323;28;20186;-64
2022/11/01 05:36:36;;;;;;;14.93;10.68;;;;;;;10.39;63.46;95738.78;5028969;28;20183;-65
2022/11/01 05:39:02;;;;;;;22.30;12.80;;;;;;;10.53;63.07;95735.78;5044696;28;20182;-64
2022/11/01 05:41:27;;;;;;;25.33;12.98;;;;;;;10.30;64.11;95742.19;5032019;28;20210;-65
2022/11/01 05:43:52;;;;;;;21.27;12.32;;;;;;;10.50;63.93;95743.91;5026004;28;21383;-65
2022/11/01 05:46:18;;;;;;;25.23;13.88;;;;;;;10.54;63.63;95747.13;5030936;28;20292;-66
2022/11/01 05:48:43;;;;;;;32.50;14.32;;;;;;;10.54;63.77;95741.88;5028162;28;20205;-65
2022/11/01 05:51:09;;;;;;;22.98;13.52;;;;;;;10.70;63.64;95749.25;5038742;28;20183;-65
2022/11/01 05:53:34;;;;;;;31.85;13.77;;;;;;;10.83;63.12;95744.59;5024172;28;20190;-65
2022/11/01 05:56:00;;;;;;;25.33;14.40;;;;;;;10.80;63.38;95740.44;5026135;28;20672;-65
2022/11/01 05:58:26;;;;;;;20.50;13.20;;;;;;;11.00;62.91;95750.97;5031201;28;20190;-65
2022/11/01 06:00:57;;;;;;;26.20;13.38;;;;;;;10.93;62.97;95753.34;5028177;28;20186;-65
2022/11/01 06:03:23;;;;;;;25.73;13.80;;;;;;;10.90;63.41;95755.38;5027570;28;20194;-65
2022/11/01 06:05:48;;;;;;;18.90;11.63;;;;;;;10.95;63.32;95761.06;5031091;28;20653;-65
2022/11/01 06:08:14;;;;;;;21.38;13.13;;;;;;;11.09;62.82;95751.94;5025017;28;20186;-65
2022/11/01 06:10:39;;;;;;;22.20;13.68;;;;;;;10.98;63.63;95764.25;5028073;28;20182;-66
2022/11/01 06:13:04;;;;;;;21.10;12.93;;;;;;;10.98;63.73;95766.06;5030413;28;20645;-66
2022/11/01 06:15:30;;;;;;;22.23;13.52;;;;;;;11.15;63.12;95754.88;5031465;28;20656;-66
2022/11/01 06:17:57;;;;;;;22.75;13.07;;;;;;;11.22;63.05;95758.59;5031236;28;20190;-66
2022/11/01 06:20:23;;;;;;;19.20;13.43;;;;;;;11.25;62.83;95757.50;5024990;28;20792;-67
2022/11/01 06:22:48;;;;;;;23.58;13.38;;;;;;;11.32;62.66;95756.00;5028173;28;20221;-65
2022/11/01 06:25:14;;;;;;;20.27;15.05;;;;;;;11.36;62.58;95757.38;5030560;28;20193;-64
2022/11/01 06:27:39;;;;;;;25.45;14.93;;;;;;;11.50;62.18;95764.03;5026873;28;20187;-64
2022/11/01 06:30:05;;;;;;;22.40;14.57;;;;;;;11.40;62.30;95763.19;5029189;28;20300;-68
2022/11/01 06:32:31;;;;;;;23.70;16.10;;;;;;;11.33;62.81;95765.53;5024842;28;20194;-64
2022/11/01 06:34:56;;;;;;;28.50;17.52;;;;;;;11.34;62.56;95764.59;5026900;28;20199;-65
2022/11/01 06:37:22;;;;;;;26.33;17.15;;;;;;;11.45;62.14;95772.34;5025719;28;20196;-64
2022/11/01 06:39:47;;;;;;;25.27;17.98;;;;;;;11.54;61.90;95770.69;5030279;28;20189;-64
2022/11/01 06:42:13;;;;;;;25.40;17.05;;;;;;;11.77;61.24;95767.75;5025062;28;20202;-63
2022/11/01 06:44:38;;;;;;;28.85;16.73;;;;;;;11.84;60.62;95764.44;5024912;28;20232;-63
2022/11/01 06:47:03;;;;;;;22.25;14.63;;;;;;;11.83;60.42;95768.03;5025677;28;20209;-64
2022/11/01 06:49:29;;;;;;;24.25;15.68;;;;;;;11.94;60.42;95772.34;5024251;28;20197;-65
2022/11/01 06:51:54;;;;;;;24.27;16.00;;;;;;;11.98;60.27;95770.25;5022478;28;20184;-65
2022/11/01 06:54:20;;;;;;;23.83;15.52;;;;;;;11.88;60.51;95765.81;5022651;28;20225;-66
2022/11/01 06:56:46;;;;;;;20.65;15.07;;;;;;;11.98;60.28;95771.09;5030150;28;20190;-65
2022/11/01 06:59:12;;;;;;;19.00;15.23;;;;;;;12.26;59.75;95777.25;5028253;28;20282;-65
2022/11/01 07:01:37;;;;;;;22.05;15.82;;;;;;;12.16;59.97;95771.16;5022493;28;20681;-67
2022/11/01 07:04:02;;;;;;;20.63;14.95;;;;;;;12.22;59.89;95770.63;5029176;28;20185;-67
2022/11/01 07:06:29;;;;;;;20.00;15.45;;;;;;;12.38;59.79;95762.09;5030941;28;20187;-65
2022/11/01 07:08:57;;;;;;;21.75;15.13;;;;;;;12.45;59.37;95757.88;5030009;28;20204;-67
2022/11/01 07:11:22;;;;;;;23.02;15.55;;;;;;;12.62;58.89;95769.50;5019355;28;20174;-64
2022/11/01 07:13:48;;;;;;;24.60;16.25;;;;;;;12.48;59.67;95768.19;5026136;28;20188;-69
2022/11/01 07:16:13;;;;;;;22.45;17.25;;;;;;;12.49;59.69;95769.00;5021478;28;20189;-68
2022/11/01 07:18:39;;;;;;;24.40;17.08;;;;;;;12.60;59.18;95763.53;5022228;28;20217;-65
2022/11/01 07:21:05;;;;;;;21.80;16.20;;;;;;;12.87;58.42;95765.34;5027985;28;20548;-66
2022/11/01 07:23:31;;;;;;;23.50;16.40;;;;;;;12.98;57.90;95767.75;5026964;28;20182;-66
2022/11/01 07:25:56;;;;;;;22.98;16.48;;;;;;;12.99;57.67;95774.72;5028620;28;20205;-66
2022/11/01 07:28:23;;;;;;;23.63;18.10;;;;;;;13.03;57.20;95767.31;5031002;28;20185;-63
2022/11/01 07:30:53;;;;;;;21.95;18.45;;;;;;;13.25;56.72;95769.53;5029007;28;20199;-63
2022/11/01 07:33:18;;;;;;;22.67;17.40;;;;;;;13.14;56.69;95768.94;5028314;28;20298;-63
2022/11/01 07:35:44;;;;;;;22.55;17.65;;;;;;;13.07;57.25;95773.13;5026810;28;20269;-63
2022/11/01 07:38:10;;;;;;;24.30;18.45;;;;;;;13.20;56.90;95765.69;5022498;28;20194;-64
2022/11/01 07:40:36;;;;;;;21.50;17.45;;;;;;;13.07;57.51;95774.00;5026135;28;20224;-65
2022/11/01 07:43:03;;;;;;;21.92;16.75;;;;;;;13.37;56.88;95772.00;5025101;28;20204;-64
2022/11/01 07:45:31;;;;;;;21.50;16.55;;;;;;;13.42;56.42;95762.66;5023934;28;20226;-64
2022/11/01 07:48:09;;;;;;;20.90;15.95;;;;;;;13.55;55.81;95766.69;5026811;28;20649;-65
2022/11/01 07:50:35;;;;;;;20.20;16.08;;;;;;;13.62;55.78;95771.22;5026209;28;20649;-64
2022/11/01 07:53:03;;;;;;;20.02;16.25;;;;;;;13.73;55.44;95764.06;5022916;28;20187;-64
2022/11/01 07:55:29;;;;;;;19.05;16.95;;;;;;;13.64;55.52;95766.63;5023397;28;20179;-63
2022/11/01 07:57:55;;;;;;;20.65;16.85;;;;;;;13.82;55.11;95757.84;5023164;28;20202;-64
2022/11/01 08:00:20;;;;;;;21.67;16.30;;;;;;;13.80;55.32;95755.38;5023535;28;21033;-64
2022/11/01 08:02:46;;;;;;;20.85;17.13;;;;;;;13.87;55.03;95752.94;5028736;28;20218;-63
2022/11/01 08:05:11;;;;;;;22.58;17.13;;;;;;;14.00;54.53;95760.47;5027958;28;20704;-64
2022/11/01 08:07:40;;;;;;;28.75;18.45;;;;;;;14.10;54.45;95756.72;5026657;28;20204;-64
2022/11/01 08:10:08;;;;;;;22.95;17.73;;;;;;;14.05;54.60;95759.00;5027053;28;20178;-62
2022/11/01 08:12:33;;;;;;;23.15;17.73;;;;;;;14.24;54.03;95765.09;5025592;28;20182;-64
2022/11/01 08:15:01;;;;;;;25.25;18.50;;;;;;;14.28;53.57;95761.16;5022329;28;20638;-64
2022/11/01 08:17:27;;;;;;;21.77;17.70;;;;;;;14.32;53.54;95757.19;5028690;28;20252;-65
2022/11/01 08:19:52;;;;;;;23.75;17.13;;;;;;;14.41;53.37;95750.97;5029633;28;20276;-64
2022/11/01 08:22:18;;;;;;;23.08;18.33;;;;;;;14.37;53.62;95746.16;5022479;28;20289;-64
2022/11/01 08:24:44;;;;;;;21.27;17.52;;;;;;;14.46;53.24;95747.84;5028676;28;20320;-64
2022/11/01 08:27:09;;;;;;;23.08;17.38;;;;;;;14.58;53.37;95751.09;5026563;28;20182;-64
2022/11/01 08:29:34;;;;;;;23.05;17.20;;;;;;;14.69;52.61;95746.31;5029841;28;20324;-64
2022/11/01 08:32:00;;;;;;;23.70;17.42;;;;;;;14.77;52.13;95740.25;5026866;28;20197;-64
2022/11/01 08:34:25;;;;;;;27.60;18.60;;;;;;;14.83;52.04;95741.41;5028653;28;20182;-63
2022/11/01 08:39:42;;;;;;;22.80;16.83;;;;;;;15.03;51.44;95732.22;5025787;28;20239;-65
2022/11/01 08:42:08;;;;;;;18.75;15.55;;;;;;;15.20;51.41;95730.44;5026738;28;20206;-65
2022/11/01 08:44:34;;;;;;;19.92;17.38;;;;;;;15.34;51.04;95728.94;5029802;28;20252;-65
2022/11/01 08:47:00;;;;;;;20.67;16.52;;;;;;;15.41;51.12;95733.44;5030499;28;20194;-65
2022/11/01 08:49:27;;;;;;;25.02;16.55;;;;;;;15.50;50.72;95728.13;5025695;28;20240;-65
2022/11/01 08:51:52;;;;;;;21.80;16.40;;;;;;;15.55;50.32;95731.13;5029666;28;20590;-64
2022/11/01 08:54:18;;;;;;;20.48;17.05;;;;;;;15.72;50.33;95732.84;5041425;28;20211;-64
2022/11/01 08:56:44;;;;;;;22.92;16.77;;;;;;;15.81;49.88;95734.47;5031680;28;20227;-65
2022/11/01 08:59:09;;;;;;;24.50;16.83;;;;;;;15.88;49.60;95732.81;5027985;28;20182;-65
2022/11/01 09:01:35;;;;;;;22.42;16.27;;;;;;;15.86;49.41;95724.19;5026037;28;20744;-66
2022/11/01 09:04:01;;;;;;;27.50;16.27;;;;;;;16.02;49.43;95722.53;5026980;28;20468;-67
2022/11/01 09:06:27;;;;;;;23.55;16.17;;;;;;;16.30;49.38;95721.16;5029716;28;20191;-67
2022/11/01 09:08:54;;;;;;;20.70;16.42;;;;;;;16.40;49.28;95722.78;5028251;28;20731;-68
2022/11/01 09:11:21;;;;;;;21.20;15.20;;;;;;;16.37;48.20;95715.97;5030917;28;20274;-67
2022/11/01 09:13:47;;;;;;;23.35;15.70;;;;;;;16.54;48.12;95719.41;5031784;28;21036;-67
2022/11/01 09:16:12;;;;;;;19.02;14.82;;;;;;;16.68;47.90;95718.72;5029863;28;20186;-67
2022/11/01 09:18:37;;;;;;;24.10;16.33;;;;;;;16.85;47.46;95719.47;5027169;28;21010;-66
2022/11/01 09:21:03;;;;;;;22.60;15.35;;;;;;;16.86;46.77;95717.66;5024188;28;20189;-66
2022/11/01 09:23:29;;;;;;;19.75;14.93;;;;;;;17.03;47.05;95721.91;5032335;28;20309;-67
2022/11/01 09:26:06;;;;;;;19.92;14.68;;;;;;;16.91;46.34;95713.47;5027513;28;20558;-67
2022/11/01 09:28:31;;;;;;;19.63;13.90;;;;;;;17.03;46.06;95715.75;5028772;28;20186;-65
2022/11/01 09:31:04;;;;;;;21.50;14.52;;;;;;;17.15;45.88;95709.03;5030546;28;20275;-65
2022/11/01 09:33:30;;;;;;;18.27;14.00;;;;;;;17.25;45.67;95706.97;5024534;28;20202;-64
2022/11/01 09:35:56;;;;;;;21.70;13.95;;;;;;;17.29;45.35;95704.78;5028967;28;20213;-63
2022/11/01 09:38:21;;;;;;;17.05;13.75;;;;;;;17.43;45.11;95701.38;5028004;28;20268;-65
2022/11/01 09:41:00;;;;;;;16.40;12.40;;;;;;;17.52;45.12;95700.31;5027695;28;20186;-66
2022/11/01 09:43:30;;;;;;;20.02;13.68;;;;;;;17.60;44.65;95686.13;5044791;28;20626;-65
2022/11/01 09:45:58;;;;;;;17.60;11.98;;;;;;;17.67;44.34;95687.06;5031743;28;20234;-65
2022/11/01 09:48:26;;;;;;;17.38;12.65;;;;;;;17.73;43.55;95677.53;5032349;28;20186;-65
2022/11/01 09:50:52;;;;;;;19.05;12.75;;;;;;;17.69;43.75;95682.38;5029020;28;20178;-65
2022/11/01 09:53:22;;;;;;;18.35;12.63;;;;;;;17.94;43.59;95679.53;5029190;28;20185;-65
2022/11/01 09:56:04;;;;;;;19.27;13.20;;;;;;;18.06;43.41;95675.41;5026691;28;20186;-65
2022/11/01 09:58:38;;;;;;;16.15;12.10;;;;;;;18.24;42.84;95675.88;5031782;28;20212;-65
2022/11/01 10:01:25;;;;;;;17.45;11.32;;;;;;;18.21;42.83;95668.28;5029275;28;20213;-65
2022/11/01 10:04:33;;;;;;;15.23;11.88;;;;;;;18.36;42.58;95667.44;5041838;28;20203;-66
2022/11/01 10:07:12;;;;;;;17.80;12.38;;;;;;;18.50;42.34;95664.78;5028024;28;20259;-67
2022/11/01 10:09:59;;;;;;;16.58;12.77;;;;;;;18.64;42.16;95664.94;5030789;28;20191;-65
2022/11/01 10:12:37;;;;;;;19.48;13.07;;;;;;;18.79;41.88;95662.28;5030393;28;20265;-63
2022/11/01 10:15:09;;;;;;;17.67;12.45;;;;;;;18.81;41.75;95661.06;5024534;28;20221;-63
2022/11/01 10:17:37;;;;;;;16.10;12.82;;;;;;;18.81;41.38;95655.75;5031566;28;20197;-63
2022/11/01 10:20:05;;;;;;;16.67;12.45;;;;;;;18.89;41.38;95655.63;5024104;28;20194;-64
2022/11/01 10:22:35;;;;;;;22.48;12.32;;;;;;;19.05;41.40;95651.09;5029747;28;20755;-64
2022/11/01 10:25:10;;;;;;;19.38;12.35;;;;;;;19.26;41.15;95650.28;5029075;28;20202;-64
2022/11/01 10:28:03;;;;;;;20.55;11.55;;;;;;;19.42;40.34;95643.88;5025858;28;20181;-64
2022/11/01 10:30:35;;;;;;;17.13;12.48;;;;;;;19.30;40.04;95640.88;5028870;28;20273;-64
2022/11/01 10:33:19;;;;;;;19.05;12.65;;;;;;;19.41;39.99;95634.25;5031655;28;20201;-64
2022/11/01 10:35:51;;;;;;;15.65;12.20;;;;;;;19.61;39.86;95633.38;5026486;28;20799;-64
2022/11/01 10:38:35;;;;;;;17.70;13.00;;;;;;;19.65;39.53;95633.00;5030215;28;20284;-64
2022/11/01 10:41:11;;;;;;;17.98;11.70;;;;;;;19.88;39.40;95630.94;5024697;28;20186;-65
2022/11/01 10:43:43;;;;;;;18.90;11.45;;;;;;;20.14;38.84;95632.97;5043275;28;20246;-65
2022/11/01 10:46:16;;;;;;;32.60;13.65;;;;;;;20.28;39.25;95628.50;5029699;28;20226;-65
2022/11/01 10:48:50;;;;;;;19.92;12.48;;;;;;;20.56;38.02;95627.69;5020040;28;20183;-67
2022/11/01 10:51:20;;;;;;;20.60;12.15;;;;;;;20.70;38.34;95624.03;5029657;28;20212;-68
2022/11/01 10:53:51;;;;;;;13.88;11.48;;;;;;;20.70;37.72;95613.34;5022533;28;20646;-68
2022/11/01 10:56:43;;;;;;;15.30;11.57;;;;;;;20.70;37.87;95608.00;5023746;28;20194;-65
2022/11/01 10:59:24;;;;;;;18.42;12.13;;;;;;;20.88;37.85;95618.13;5023229;28;20187;-66
2022/11/01 11:01:51;;;;;;;16.70;11.57;;;;;;;21.03;37.19;95612.59;5025210;28;20685;-65
2022/11/01 11:04:21;;;;;;;17.75;11.02;;;;;;;21.18;36.62;95613.25;5023262;28;20194;-64
2022/11/01 11:06:51;;;;;;;16.92;11.15;;;;;;;21.23;36.67;95601.97;5023382;28;20648;-66
2022/11/01 11:09:33;;;;;;;13.98;11.10;;;;;;;21.49;35.92;95604.69;5025353;28;21087;-64
2022/11/01 11:12:04;;;;;;;16.15;10.80;;;;;;;21.62;35.53;95595.00;5025829;28;20759;-65
2022/11/01 11:14:32;;;;;;;19.15;10.85;;;;;;;21.81;35.32;95599.50;5024754;28;20182;-64
2022/11/01 11:16:59;;;;;;;14.65;10.70;;;;;;;21.85;34.91;95597.25;5028119;28;20253;-63
2022/11/01 11:19:28;;;;;;;11.63;9.65;;;;;;;21.99;34.38;95599.69;5021610;28;20583;-65
2022/11/01 11:21:54;;;;;;;13.20;9.68;;;;;;;21.94;34.50;95590.63;5027978;28;20302;-66
2022/11/01 11:24:29;;;;;;;16.73;10.05;;;;;;;21.71;34.90;95583.88;5025890;28;20178;-65
2022/11/01 11:26:56;;;;;;;13.02;9.40;;;;;;;22.05;34.32;95586.50;5024583;28;20236;-65
2022/11/01 11:29:33;;;;;;;15.18;9.73;;;;;;;22.31;33.49;95585.66;5028772;28;20214;-65
2022/11/01 11:31:59;;;;;;;18.98;10.85;;;;;;;22.39;33.62;95583.56;5025580;28;20221;-64
2022/11/01 11:34:31;;;;;;;15.35;10.02;;;;;;;22.54;33.41;95583.31;5020242;28;20209;-64
2022/11/01 11:36:57;;;;;;;13.57;9.82;;;;;;;22.86;33.55;95583.34;5029075;28;20190;-64
2022/11/01 11:42:29;;;;;;;15.35;9.60;;;;;;;31.77;20.79;95570.50;5030160;28;20216;-64
2022/11/01 11:45:11;;;;;;;18.73;9.35;;;;;;;38.03;13.97;95581.81;5022197;28;20230;-66